Soro, Denmark
Current Conditions -  °F | °C
As of 12:20 AM on Sunday 23 Nov 2014 (Local Time) from EKRK Reporting Station
Moderate Rain Moderate Rain  
Wind Chill: 36°   Ceiling: 1400
Heat Index: 43°   Visibility: 3mi
Dew Point: 41°   Wind: 13mph
Humidity: 93%   Direction: 150°SSE
Pressure: 30.24"   Gusts: NA
Location:  55.43°N, 11.56°E
Report Text: EKRK 222320Z AUTO 15011KT 5000NDV RA FEW007/// SCT011///BKN014/// BKN019/// 06/05 Q1024
Loading
Personal Weather Stations






























Interactive Weather Map New forecast layout! Learn more

10-Day Weather Forecast

Advertisements
Track Severe Weather on mobile